createdAt,value
2018-10-16T00:00:04.455Z,79.80
2018-10-16T00:02:31.878Z,80.33
2018-10-16T00:04:59.379Z,80.42
2018-10-16T00:07:26.821Z,80.29
2018-10-16T00:09:54.242Z,80.20
2018-10-16T00:12:21.703Z,80.23
2018-10-16T00:14:49.050Z,80.43
2018-10-16T00:17:16.528Z,80.29
2018-10-16T00:19:44.014Z,80.39
2018-10-16T00:22:11.401Z,80.85
2018-10-16T00:24:38.890Z,81.22
2018-10-16T00:27:06.336Z,80.97
2018-10-16T00:29:33.775Z,81.28
2018-10-16T00:32:01.213Z,81.58
2018-10-16T00:34:28.617Z,81.75
2018-10-16T00:36:56.219Z,81.98
2018-10-16T00:39:23.624Z,82.45
2018-10-16T00:41:55.214Z,82.09
2018-10-16T00:44:22.675Z,82.26
2018-10-16T00:46:50.151Z,82.30
2018-10-16T00:49:17.649Z,82.61
2018-10-16T00:51:45.207Z,82.52
2018-10-16T00:54:12.611Z,82.98
2018-10-16T00:56:40.064Z,82.78
2018-10-16T00:59:07.799Z,83.06
2018-10-16T01:01:35.493Z,83.09
2018-10-16T01:04:05.095Z,83.05
2018-10-16T01:06:33.532Z,83.18
2018-10-16T01:09:00.979Z,83.08
2018-10-16T01:11:28.438Z,83.49
2018-10-16T01:13:56.828Z,83.69
2018-10-16T01:16:24.374Z,83.89
2018-10-16T01:18:52.078Z,83.91
2018-10-16T01:21:20.018Z,83.93
2018-10-16T01:23:47.416Z,84.20
2018-10-16T01:26:14.865Z,84.26
2018-10-16T01:28:42.248Z,84.23
2018-10-16T01:31:09.800Z,84.31
2018-10-16T01:33:38.068Z,84.60
2018-10-16T01:36:06.270Z,84.66
2018-10-16T01:38:33.700Z,84.82
2018-10-16T01:41:01.254Z,85.10
2018-10-16T01:43:28.649Z,84.91
2018-10-16T01:45:56.128Z,85.24
2018-10-16T01:48:23.521Z,85.31
2018-10-16T01:50:51.075Z,85.27
2018-10-16T01:53:18.465Z,85.23
2018-10-16T01:55:45.927Z,85.58
2018-10-16T01:58:13.492Z,85.47
2018-10-16T02:00:41.737Z,85.40
2018-10-16T02:03:09.191Z,85.35
2018-10-16T02:05:36.923Z,85.19
2018-10-16T02:08:05.190Z,85.15
2018-10-16T02:10:32.649Z,85.14
2018-10-16T02:13:00.942Z,84.98
2018-10-16T02:15:28.507Z,84.82
2018-10-16T02:17:55.930Z,84.15
2018-10-16T02:20:23.370Z,83.85
2018-10-16T02:22:50.774Z,83.19
2018-10-16T02:25:18.221Z,82.94
2018-10-16T02:27:45.696Z,82.96
2018-10-16T02:30:13.231Z,83.15
2018-10-16T02:32:40.675Z,83.30
2018-10-16T02:35:09.158Z,83.45
2018-10-16T02:37:36.595Z,83.88
2018-10-16T02:40:04.951Z,84.05
2018-10-16T02:42:32.379Z,84.11
2018-10-16T02:44:59.851Z,84.37
2018-10-16T02:47:27.247Z,84.54
2018-10-16T02:49:54.653Z,84.77
2018-10-16T02:52:22.048Z,85.05
2018-10-16T02:54:49.469Z,85.13
2018-10-16T02:57:17.074Z,84.99
2018-10-16T02:59:44.516Z,85.34
2018-10-16T03:02:11.983Z,85.38
2018-10-16T03:04:39.467Z,85.47
2018-10-16T03:07:07.075Z,85.40
2018-10-16T03:09:34.533Z,85.30
2018-10-16T03:12:02.303Z,85.60
2018-10-16T03:14:29.790Z,85.66
2018-10-16T03:16:57.247Z,85.72
2018-10-16T03:19:24.944Z,86.05
2018-10-16T03:21:52.406Z,85.78
2018-10-16T03:24:19.850Z,85.97
2018-10-16T03:26:47.292Z,85.96
2018-10-16T03:29:14.678Z,86.11
2018-10-16T03:31:42.174Z,86.16
2018-10-16T03:34:09.792Z,86.39
2018-10-16T03:36:38.276Z,86.38
2018-10-16T03:39:07.802Z,86.55
2018-10-16T03:41:35.239Z,86.61
2018-10-16T03:44:07.149Z,86.14
2018-10-16T03:46:35.009Z,85.87
2018-10-16T03:49:02.389Z,85.77
2018-10-16T03:51:29.887Z,85.64
2018-10-16T03:53:57.280Z,85.43
2018-10-16T03:56:25.718Z,85.25
2018-10-16T03:58:53.178Z,85.44
2018-10-16T04:01:21.049Z,85.37
2018-10-16T04:03:48.893Z,85.37
2018-10-16T04:06:16.388Z,85.26
2018-10-16T04:08:43.763Z,85.28
2018-10-16T04:11:11.289Z,85.33
2018-10-16T04:13:38.695Z,85.31
2018-10-16T04:16:06.556Z,85.52
2018-10-16T04:18:33.944Z,85.53
2018-10-16T04:21:01.439Z,85.58
2018-10-16T04:23:28.883Z,85.42
2018-10-16T04:25:56.321Z,85.69
2018-10-16T04:28:23.813Z,85.82
2018-10-16T04:30:51.257Z,85.96
2018-10-16T04:33:18.633Z,86.00
2018-10-16T04:35:46.049Z,85.92
2018-10-16T04:38:13.499Z,85.80
2018-10-16T04:40:41.083Z,86.01
2018-10-16T04:43:08.495Z,86.14
2018-10-16T04:45:35.944Z,86.26
2018-10-16T04:48:03.410Z,86.32
2018-10-16T04:50:30.803Z,86.47
2018-10-16T04:52:58.605Z,86.39
2018-10-16T04:55:26.027Z,86.39
2018-10-16T04:57:54.312Z,86.40
2018-10-16T05:00:21.757Z,86.37
2018-10-16T05:02:49.197Z,86.41
2018-10-16T05:05:20.409Z,86.41
2018-10-16T05:07:48.255Z,86.41
2018-10-16T05:10:15.667Z,86.59
2018-10-16T05:12:43.084Z,86.43
2018-10-16T05:15:14.456Z,86.46
2018-10-16T05:17:41.834Z,86.26
2018-10-16T05:20:09.301Z,86.61
2018-10-16T05:22:36.783Z,86.41
2018-10-16T05:25:05.006Z,86.58
2018-10-16T05:27:32.503Z,86.42
2018-10-16T05:29:59.922Z,86.66
2018-10-16T05:32:27.516Z,86.68
2018-10-16T05:34:54.890Z,86.65
2018-10-16T05:37:22.361Z,86.72
2018-10-16T05:39:49.742Z,86.49
2018-10-16T05:42:17.277Z,86.75
2018-10-16T05:44:44.676Z,86.47
2018-10-16T05:47:12.124Z,86.75
2018-10-16T05:49:39.497Z,86.85
2018-10-16T05:52:07.068Z,86.67
2018-10-16T05:54:34.453Z,86.72
2018-10-16T05:57:01.870Z,86.58
2018-10-16T05:59:29.346Z,86.95
2018-10-16T06:01:56.764Z,86.79
2018-10-16T06:04:24.158Z,86.74
2018-10-16T06:06:51.650Z,86.41
2018-10-16T06:09:19.054Z,86.25
2018-10-16T06:11:46.534Z,86.13
2018-10-16T06:14:14.076Z,85.50
2018-10-16T06:16:41.494Z,85.08
2018-10-16T06:19:09.023Z,84.64
2018-10-16T06:21:36.464Z,84.51
2018-10-16T06:24:03.880Z,84.90
2018-10-16T06:26:31.471Z,81.05
2018-10-16T06:28:58.842Z,77.20
2018-10-16T06:31:26.286Z,74.67
2018-10-16T06:33:53.774Z,73.22
2018-10-16T06:36:21.286Z,73.13
2018-10-16T06:38:48.796Z,72.46
2018-10-16T06:41:16.325Z,72.65
2018-10-16T06:43:43.924Z,70.67
2018-10-16T06:46:11.410Z,68.33
2018-10-16T06:48:39.191Z,67.73
2018-10-16T06:51:06.298Z,66.29
2018-10-16T06:53:33.682Z,65.59
2018-10-16T06:56:01.166Z,65.90
2018-10-16T06:58:28.616Z,66.29
2018-10-16T07:00:56.040Z,66.99
2018-10-16T07:03:23.439Z,67.81
2018-10-16T07:05:50.891Z,61.70
2018-10-16T07:08:18.249Z,55.12
2018-10-16T07:10:45.642Z,51.00
2018-10-16T07:13:13.080Z,50.33
2018-10-16T07:15:40.481Z,48.55
2018-10-16T07:18:07.816Z,43.04
2018-10-16T07:20:35.230Z,38.62
2018-10-16T07:23:02.618Z,34.95
2018-10-16T07:25:36.890Z,31.42
2018-10-16T07:28:04.375Z,29.68
2018-10-16T07:30:32.030Z,27.67
2018-10-16T07:32:59.638Z,25.98
2018-10-16T07:35:27.070Z,25.66
2018-10-16T07:37:54.576Z,24.26
2018-10-16T07:40:22.009Z,23.26
2018-10-16T07:42:49.426Z,22.66
2018-10-16T07:45:16.907Z,22.73
2018-10-16T07:47:44.310Z,22.15
2018-10-16T07:50:12.193Z,21.48
2018-10-16T07:52:39.674Z,21.30
2018-10-16T07:55:08.869Z,20.82
2018-10-16T07:57:36.298Z,20.72
2018-10-16T08:00:04.054Z,20.38
2018-10-16T08:02:31.554Z,19.84
2018-10-16T08:04:58.923Z,19.33
2018-10-16T08:07:26.352Z,19.25
2018-10-16T08:09:53.802Z,18.84
2018-10-16T08:12:21.348Z,18.58
2018-10-16T08:14:48.803Z,18.52
2018-10-16T08:17:16.378Z,18.68
2018-10-16T08:19:43.786Z,18.68
2018-10-16T08:22:11.208Z,17.60
2018-10-16T08:24:38.615Z,17.95
2018-10-16T08:27:06.029Z,17.57
2018-10-16T08:29:33.448Z,17.59
2018-10-16T08:32:01.006Z,17.72
2018-10-16T08:34:28.419Z,18.23
2018-10-16T08:36:55.907Z,18.18
2018-10-16T08:39:27.111Z,18.05
2018-10-16T08:44:11.869Z,17.58
2018-10-16T08:46:50.810Z,17.71
2018-10-16T08:50:31.245Z,18.79
2018-10-16T08:52:58.762Z,19.33
2018-10-16T08:55:26.167Z,19.87
2018-10-16T08:57:53.696Z,20.81
2018-10-16T09:00:21.227Z,23.57
2018-10-16T09:02:48.818Z,26.55
2018-10-16T09:05:16.232Z,29.67
2018-10-16T09:07:43.725Z,32.45
2018-10-16T09:10:11.233Z,35.51
2018-10-16T09:12:38.634Z,37.47
2018-10-16T09:15:06.801Z,39.58
2018-10-16T09:17:34.314Z,41.33
2018-10-16T09:20:01.841Z,42.24
2018-10-16T09:22:30.247Z,43.55
2018-10-16T09:24:57.672Z,45.29
2018-10-16T09:27:25.121Z,46.50
2018-10-16T09:29:52.567Z,47.24
2018-10-16T09:32:19.985Z,48.05
2018-10-16T09:34:47.357Z,47.94
2018-10-16T09:37:15.017Z,47.53
2018-10-16T09:39:42.505Z,47.64
2018-10-16T09:42:09.986Z,48.36
2018-10-16T09:44:37.428Z,48.93
2018-10-16T09:47:04.873Z,48.87
2018-10-16T09:49:32.290Z,48.92
2018-10-16T09:51:59.700Z,49.21
2018-10-16T09:54:27.176Z,49.03
2018-10-16T09:56:54.584Z,49.61
2018-10-16T09:59:21.990Z,49.35
2018-10-16T10:01:53.750Z,49.33
2018-10-16T10:04:21.234Z,49.47
2018-10-16T10:06:48.690Z,49.34
2018-10-16T10:09:16.102Z,49.14
2018-10-16T10:11:43.510Z,49.14
2018-10-16T10:14:11.000Z,48.72
2018-10-16T10:16:38.822Z,48.43
2018-10-16T10:19:06.377Z,48.53
2018-10-16T10:21:33.976Z,48.51
2018-10-16T10:24:01.477Z,48.34
2018-10-16T10:26:28.929Z,47.96
2018-10-16T10:28:56.838Z,47.58
2018-10-16T10:31:24.322Z,47.70
2018-10-16T10:33:51.722Z,47.42
2018-10-16T10:36:19.218Z,46.86
2018-10-16T10:38:46.757Z,46.60
2018-10-16T10:41:14.198Z,47.06
2018-10-16T10:43:41.621Z,47.06
2018-10-16T10:46:09.080Z,46.63
2018-10-16T10:48:37.106Z,46.20
2018-10-16T10:51:04.914Z,45.82
2018-10-16T10:53:32.177Z,46.30
2018-10-16T10:55:59.623Z,46.19
2018-10-16T10:58:27.101Z,45.61
2018-10-16T11:00:54.621Z,45.21
2018-10-16T11:03:22.204Z,45.39
2018-10-16T11:05:49.592Z,45.21
2018-10-16T11:08:17.059Z,44.75
2018-10-16T11:10:44.516Z,45.01
2018-10-16T11:13:12.005Z,44.75
2018-10-16T11:15:39.428Z,44.34
2018-10-16T11:18:06.878Z,43.62
2018-10-16T11:20:34.284Z,43.67
2018-10-16T11:23:01.670Z,43.67
2018-10-16T11:25:29.071Z,43.47
2018-10-16T11:27:56.680Z,42.94
2018-10-16T11:30:24.259Z,43.23
2018-10-16T11:32:51.710Z,43.17
2018-10-16T11:35:19.160Z,42.75
2018-10-16T11:37:46.652Z,42.86
2018-10-16T11:40:14.105Z,43.17
2018-10-16T11:42:42.093Z,42.85
2018-10-16T11:45:09.696Z,42.05
2018-10-16T11:47:38.002Z,42.32
2018-10-16T11:50:06.949Z,42.19
2018-10-16T11:52:34.386Z,42.38
2018-10-16T11:55:01.812Z,42.62
2018-10-16T11:57:29.310Z,41.95
2018-10-16T11:59:57.040Z,42.27
2018-10-16T12:02:24.503Z,42.30
2018-10-16T12:04:51.934Z,42.12
2018-10-16T12:07:19.406Z,42.12
2018-10-16T12:09:46.794Z,41.56
2018-10-16T12:12:14.260Z,41.52
2018-10-16T12:14:41.758Z,41.90
2018-10-16T12:17:45.376Z,41.32
2018-10-16T12:20:17.554Z,41.35
2018-10-16T12:22:45.058Z,41.20
2018-10-16T12:25:12.562Z,40.64
2018-10-16T12:27:39.908Z,40.70
2018-10-16T12:30:07.694Z,40.34
2018-10-16T12:32:35.693Z,40.94
2018-10-16T12:35:03.138Z,40.68
2018-10-16T12:37:30.550Z,40.49
2018-10-16T12:39:58.065Z,40.76
2018-10-16T12:42:25.456Z,40.75
2018-10-16T12:44:52.953Z,40.74
2018-10-16T12:47:20.417Z,40.34
2018-10-16T12:49:47.808Z,40.87
2018-10-16T12:52:15.322Z,41.01
2018-10-16T12:54:43.146Z,40.67
2018-10-16T12:57:10.579Z,40.83
2018-10-16T12:59:38.011Z,40.87
2018-10-16T13:02:05.523Z,41.13
2018-10-16T13:04:32.876Z,40.89
2018-10-16T13:07:08.807Z,41.06
2018-10-16T13:09:36.254Z,41.29
2018-10-16T13:12:03.714Z,40.42
2018-10-16T13:14:31.254Z,40.86
2018-10-16T13:16:58.754Z,40.48
2018-10-16T13:19:26.117Z,40.57
2018-10-16T13:21:53.630Z,40.03
2018-10-16T13:24:21.150Z,40.50
2018-10-16T13:26:48.554Z,40.19
2018-10-16T13:29:16.203Z,39.84
2018-10-16T13:31:43.521Z,39.98
2018-10-16T13:34:10.981Z,40.01
2018-10-16T13:36:38.610Z,39.85
2018-10-16T13:39:07.475Z,39.71
2018-10-16T13:41:34.905Z,39.71
2018-10-16T13:44:02.622Z,39.49
2018-10-16T13:46:30.060Z,39.41
2018-10-16T13:48:57.448Z,39.16
2018-10-16T13:51:24.912Z,38.90
2018-10-16T13:53:52.302Z,38.90
2018-10-16T13:56:20.018Z,38.77
2018-10-16T13:58:47.474Z,38.56
2018-10-16T14:01:14.893Z,38.90
2018-10-16T14:03:42.410Z,38.80
2018-10-16T14:06:09.862Z,38.46
2018-10-16T14:08:37.266Z,38.59
2018-10-16T14:11:04.918Z,39.31
2018-10-16T14:13:32.370Z,39.33
2018-10-16T14:15:59.774Z,39.12
2018-10-16T14:18:27.270Z,39.75
2018-10-16T14:20:54.683Z,39.50
2018-10-16T14:23:22.065Z,39.61
2018-10-16T14:25:49.561Z,39.85
2018-10-16T14:28:17.047Z,40.12
2018-10-16T14:30:44.554Z,39.75
2018-10-16T14:33:12.040Z,40.05
2018-10-16T14:35:39.470Z,40.05
2018-10-16T14:38:06.884Z,39.46
2018-10-16T14:40:34.526Z,39.23
2018-10-16T14:45:28.832Z,38.92
2018-10-16T14:47:56.489Z,39.06
2018-10-16T14:50:23.946Z,38.75
2018-10-16T14:52:51.382Z,38.34
2018-10-16T14:55:18.791Z,38.38
2018-10-16T14:57:46.203Z,38.30
2018-10-16T15:00:13.660Z,37.67
2018-10-16T15:02:41.067Z,37.41
2018-10-16T15:05:09.626Z,37.87
2018-10-16T15:07:37.342Z,37.83
2018-10-16T15:10:05.950Z,37.97
2018-10-16T15:12:33.514Z,37.58
2018-10-16T15:15:01.982Z,37.85
2018-10-16T15:17:30.150Z,37.80
2018-10-16T15:19:57.905Z,38.40
2018-10-16T15:22:25.502Z,38.67
2018-10-16T15:24:52.945Z,38.93
2018-10-16T15:27:20.829Z,38.69
2018-10-16T15:29:48.229Z,39.31
2018-10-16T15:32:16.022Z,39.60
2018-10-16T15:34:43.505Z,39.88
2018-10-16T15:37:11.034Z,40.07
2018-10-16T15:39:38.446Z,40.46
2018-10-16T15:42:05.961Z,40.76
2018-10-16T15:44:34.040Z,40.38
2018-10-16T15:47:01.673Z,40.42
2018-10-16T15:49:29.157Z,40.45
2018-10-16T15:51:56.610Z,41.00
2018-10-16T15:54:24.080Z,40.69
2018-10-16T15:56:51.547Z,41.03
2018-10-16T15:59:19.146Z,41.53
2018-10-16T16:01:46.591Z,41.48
2018-10-16T16:04:14.945Z,42.33
2018-10-16T16:06:42.664Z,42.68
2018-10-16T16:09:10.355Z,42.48
2018-10-16T16:11:37.829Z,43.04
2018-10-16T16:14:05.310Z,43.21
2018-10-16T16:16:32.711Z,42.93
2018-10-16T16:19:00.130Z,42.75
2018-10-16T16:21:27.635Z,42.87
2018-10-16T16:23:55.163Z,42.66
2018-10-16T16:26:22.670Z,43.09
2018-10-16T16:28:49.974Z,43.29
2018-10-16T16:31:17.539Z,43.91
2018-10-16T16:33:45.065Z,44.08
2018-10-16T16:36:12.555Z,44.50
2018-10-16T16:38:40.079Z,44.62
2018-10-16T16:41:07.794Z,45.35
2018-10-16T16:43:35.241Z,45.81
2018-10-16T16:46:02.700Z,45.88
2018-10-16T16:48:30.261Z,46.29
2018-10-16T16:50:57.647Z,46.31
2018-10-16T16:53:25.079Z,46.67
2018-10-16T16:55:52.581Z,46.37
2018-10-16T16:58:19.963Z,47.00
2018-10-16T17:00:47.521Z,47.22
2018-10-16T17:03:15.080Z,47.73
2018-10-16T17:05:42.459Z,47.89
2018-10-16T17:08:10.074Z,47.91
2018-10-16T17:10:37.515Z,47.48
2018-10-16T17:13:04.966Z,47.92
2018-10-16T17:15:32.520Z,48.38
2018-10-16T17:17:59.987Z,48.70
2018-10-16T17:20:27.468Z,49.18
2018-10-16T17:22:55.097Z,49.18
2018-10-16T17:25:22.985Z,49.70
2018-10-16T17:27:50.095Z,49.73
2018-10-16T17:30:17.587Z,50.18
2018-10-16T17:32:45.473Z,50.11
2018-10-16T17:35:13.503Z,50.55
2018-10-16T17:37:42.245Z,50.75
2018-10-16T17:40:12.447Z,50.62
2018-10-16T17:42:40.077Z,51.00
2018-10-16T17:45:09.484Z,51.07
2018-10-16T17:47:37.708Z,51.57
2018-10-16T17:50:08.186Z,51.75
2018-10-16T17:52:35.884Z,51.67
2018-10-16T17:55:03.915Z,51.83
2018-10-16T17:57:31.559Z,52.61
2018-10-16T17:59:58.922Z,52.66
2018-10-16T18:02:26.429Z,52.81
2018-10-16T18:04:53.948Z,52.89
2018-10-16T18:07:21.438Z,53.06
2018-10-16T18:09:48.869Z,53.33
2018-10-16T18:12:16.318Z,52.89
2018-10-16T18:14:43.733Z,53.33
2018-10-16T18:17:11.194Z,53.57
2018-10-16T18:19:38.670Z,53.63
2018-10-16T18:22:06.235Z,53.48
2018-10-16T18:24:33.725Z,53.83
2018-10-16T18:27:01.538Z,53.62
2018-10-16T18:29:28.948Z,54.21
2018-10-16T18:31:56.518Z,54.25
2018-10-16T18:34:23.923Z,54.42
2018-10-16T18:36:51.344Z,54.64
2018-10-16T18:39:18.879Z,54.60
2018-10-16T18:41:46.430Z,54.75
2018-10-16T18:44:13.937Z,55.00
2018-10-16T18:46:41.455Z,55.03
2018-10-16T18:49:09.006Z,55.23
2018-10-16T18:51:36.616Z,55.29
2018-10-16T18:54:04.191Z,55.83
2018-10-16T18:56:31.646Z,55.79
2018-10-16T18:58:59.349Z,55.83
2018-10-16T19:01:26.954Z,55.97
2018-10-16T19:03:54.375Z,56.24
2018-10-16T19:06:22.011Z,56.57
2018-10-16T19:08:49.530Z,56.87
2018-10-16T19:11:17.056Z,57.04
2018-10-16T19:13:44.741Z,57.33
2018-10-16T19:16:12.582Z,57.34
2018-10-16T19:18:40.078Z,57.59
2018-10-16T19:21:07.888Z,57.96
2018-10-16T19:23:35.339Z,57.87
2018-10-16T19:26:02.928Z,57.94
2018-10-16T19:28:30.354Z,58.45
2018-10-16T19:30:58.062Z,58.58
2018-10-16T19:33:25.606Z,58.50
2018-10-16T19:35:53.013Z,58.71
2018-10-16T19:38:20.502Z,59.12
2018-10-16T19:40:47.949Z,58.93
2018-10-16T19:43:15.448Z,59.10
2018-10-16T19:45:43.333Z,59.44
2018-10-16T19:48:10.943Z,59.18
2018-10-16T19:50:38.519Z,59.33
2018-10-16T19:53:06.116Z,59.58
2018-10-16T19:55:33.680Z,59.80
2018-10-16T19:58:01.235Z,60.20
2018-10-16T20:00:28.739Z,59.84
2018-10-16T20:02:56.175Z,60.06
2018-10-16T20:05:23.547Z,60.22
2018-10-16T20:07:50.989Z,60.21
2018-10-16T20:10:18.383Z,60.48
2018-10-16T20:12:45.951Z,60.65
2018-10-16T20:15:13.403Z,60.50
2018-10-16T20:17:40.799Z,60.61
2018-10-16T20:20:09.067Z,61.04
2018-10-16T20:22:36.614Z,60.90
2018-10-16T20:25:04.731Z,61.18
2018-10-16T20:27:32.530Z,61.17
2018-10-16T20:30:00.003Z,61.30
2018-10-16T20:32:27.500Z,61.35
2018-10-16T20:34:54.933Z,61.29
2018-10-16T20:37:22.520Z,61.70
2018-10-16T20:39:50.008Z,61.47
2018-10-16T20:42:17.560Z,61.72
2018-10-16T20:44:44.952Z,61.74
2018-10-16T20:47:12.354Z,61.84
2018-10-16T20:49:39.767Z,61.61
2018-10-16T20:52:07.649Z,61.92
2018-10-16T20:54:35.035Z,62.28
2018-10-16T20:57:02.467Z,62.25
2018-10-16T20:59:29.939Z,62.83
2018-10-16T21:01:57.358Z,62.65
2018-10-16T21:04:24.842Z,62.50
2018-10-16T21:06:52.301Z,63.18
2018-10-16T21:09:19.816Z,63.77
2018-10-16T21:11:47.212Z,63.42
2018-10-16T21:14:14.627Z,63.18
2018-10-16T21:16:42.065Z,63.83
2018-10-16T21:19:09.675Z,64.47
2018-10-16T21:21:37.058Z,64.71
2018-10-16T21:24:04.738Z,65.36
2018-10-16T21:26:32.160Z,65.31
2018-10-16T21:28:59.570Z,66.03
2018-10-16T21:31:26.966Z,65.74
2018-10-16T21:33:54.328Z,65.73
2018-10-16T21:36:21.782Z,65.59
2018-10-16T21:38:49.166Z,65.99
2018-10-16T21:41:16.652Z,65.97
2018-10-16T21:43:44.084Z,66.11
2018-10-16T21:46:11.526Z,65.61
2018-10-16T21:48:38.934Z,65.40
2018-10-16T21:51:06.497Z,65.01
2018-10-16T21:53:33.862Z,65.23
2018-10-16T21:56:01.307Z,65.48
2018-10-16T21:58:28.874Z,65.79
2018-10-16T22:01:02.142Z,66.17
2018-10-16T22:03:29.517Z,66.08
2018-10-16T22:05:56.929Z,66.67
2018-10-16T22:08:24.357Z,66.96
2018-10-16T22:10:51.806Z,67.29
2018-10-16T22:13:19.291Z,67.96
2018-10-16T22:15:46.649Z,68.27
2018-10-16T22:18:14.035Z,68.51
2018-10-16T22:20:41.497Z,68.89
2018-10-16T22:23:08.991Z,69.31
2018-10-16T22:25:36.352Z,69.20
2018-10-16T22:28:03.980Z,69.51
2018-10-16T22:30:31.405Z,69.55
2018-10-16T22:32:58.783Z,70.04
2018-10-16T22:35:26.329Z,69.97
2018-10-16T22:37:53.846Z,70.20
2018-10-16T22:40:21.297Z,70.25
2018-10-16T22:42:48.817Z,70.17
2018-10-16T22:45:16.241Z,70.39
2018-10-16T22:47:43.669Z,70.64
2018-10-16T22:50:12.421Z,70.83
2018-10-16T22:52:39.909Z,70.85
2018-10-16T22:55:08.194Z,71.11
2018-10-16T22:57:35.568Z,71.67
2018-10-16T23:00:03.454Z,71.51
2018-10-16T23:02:30.848Z,71.56
2018-10-16T23:04:58.441Z,71.78
2018-10-16T23:07:25.823Z,71.73
2018-10-16T23:09:53.235Z,71.88
2018-10-16T23:12:20.761Z,71.78
2018-10-16T23:14:48.228Z,71.80
2018-10-16T23:17:15.671Z,72.56
2018-10-16T23:19:43.083Z,72.85
2018-10-16T23:22:10.495Z,73.52
2018-10-16T23:24:37.915Z,73.55
2018-10-16T23:27:11.978Z,73.59
2018-10-16T23:29:39.432Z,74.17
2018-10-16T23:32:06.950Z,74.17
2018-10-16T23:34:34.391Z,74.44
2018-10-16T23:37:01.908Z,74.60
2018-10-16T23:39:29.229Z,75.37
2018-10-16T23:41:56.629Z,75.25
2018-10-16T23:44:24.002Z,75.23
2018-10-16T23:46:51.432Z,75.11
2018-10-16T23:49:18.811Z,75.41
2018-10-16T23:51:46.472Z,75.63
2018-10-16T23:54:13.853Z,75.58
2018-10-16T23:56:41.298Z,75.84
2018-10-16T23:59:08.797Z,76.27
